Time;durP1;ratioP1;P1;durP2;ratioP2;P2;SDS_P1;SDS_P2;PMS_P1;PMS_P2;Temp;Humidity;BMP_temperature;BMP_pressure;BME280_temperature;BME280_humidity;BME280_pressure;Samples;Min_cycle;Max_cycle;Signal;HPM_P1;HPM_P2
2023/03/08 00:00:33;;;;;;;20.98;12.40;;;;;;;9.98;62.44;99119.56;5033684;28;20128;-64
2023/03/08 00:02:58;;;;;;;23.23;12.60;;;;;;;9.84;60.89;99123.78;5034201;28;20346;-64
2023/03/08 00:05:24;;;;;;;23.95;14.98;;;;;;;9.88;62.36;99117.97;5033515;28;20068;-64
2023/03/08 00:07:52;;;;;;;26.80;13.95;;;;;;;9.91;63.25;99112.34;5033735;28;20078;-65
2023/03/08 00:10:17;;;;;;;43.10;19.08;;;;;;;9.89;63.83;99111.69;5032689;28;20139;-65
2023/03/08 00:12:43;;;;;;;23.08;12.93;;;;;;;9.96;64.17;99111.00;5032159;28;20269;-64
2023/03/08 00:15:08;;;;;;;24.25;12.95;;;;;;;9.95;63.97;99114.63;5036282;28;20043;-64
2023/03/08 00:17:38;;;;;;;29.27;15.45;;;;;;;9.88;64.24;99111.84;5040006;28;20108;-64
2023/03/08 00:20:09;;;;;;;25.95;14.77;;;;;;;9.97;64.02;99108.16;5039727;28;20096;-64
2023/03/08 00:22:36;;;;;;;23.33;13.55;;;;;;;9.96;63.05;99111.81;5039346;28;20041;-64
2023/03/08 00:25:02;;;;;;;25.38;12.93;;;;;;;10.01;63.46;99119.22;5041982;28;20033;-64
2023/03/08 00:27:27;;;;;;;27.95;13.45;;;;;;;10.05;63.41;99107.31;5040458;28;20048;-64
2023/03/08 00:29:53;;;;;;;28.20;14.30;;;;;;;10.06;63.49;99103.66;5040361;28;20036;-65
2023/03/08 00:32:18;;;;;;;28.67;15.18;;;;;;;9.85;63.88;99107.72;5040736;28;20048;-65
2023/03/08 00:34:45;;;;;;;20.10;12.43;;;;;;;9.92;62.75;99106.03;5039825;28;20025;-64
2023/03/08 00:37:12;;;;;;;27.55;14.75;;;;;;;9.80;63.56;99118.00;5039719;28;20036;-64
2023/03/08 00:39:37;;;;;;;25.38;13.35;;;;;;;9.65;63.04;99114.44;5041192;28;20029;-64
2023/03/08 00:42:03;;;;;;;22.67;13.13;;;;;;;9.74;62.96;99115.22;5040341;28;20461;-66
2023/03/08 00:44:28;;;;;;;26.65;14.43;;;;;;;9.80;63.26;99107.44;5040176;28;20037;-65
2023/03/08 00:46:54;;;;;;;32.42;15.32;;;;;;;9.75;64.33;99101.00;5038500;28;20060;-64
2023/03/08 00:49:19;;;;;;;28.83;13.50;;;;;;;9.65;63.56;99109.16;5040271;28;20280;-64
2023/03/08 00:51:44;;;;;;;26.27;13.40;;;;;;;9.65;63.44;99111.78;5039858;28;20045;-64
2023/03/08 00:54:10;;;;;;;28.55;14.50;;;;;;;9.71;63.33;99094.41;5038762;28;20039;-64
2023/03/08 00:56:35;;;;;;;27.73;14.02;;;;;;;9.76;63.54;99097.38;5040212;28;20437;-64
2023/03/08 00:59:01;;;;;;;25.65;15.10;;;;;;;9.66;64.31;99100.22;5040026;28;20037;-65
2023/03/08 01:01:26;;;;;;;30.60;15.60;;;;;;;9.68;64.43;99097.41;5039488;28;20036;-65
2023/03/08 01:03:52;;;;;;;33.55;16.98;;;;;;;9.24;66.49;99103.97;5039609;28;20331;-64
2023/03/08 01:06:17;;;;;;;29.83;15.57;;;;;;;9.21;66.30;99106.94;5040527;28;20135;-64
2023/03/08 01:08:43;;;;;;;31.05;15.43;;;;;;;9.30;65.69;99102.47;5038193;28;20068;-64
2023/03/08 01:11:21;;;;;;;24.83;14.13;;;;;;;9.16;66.26;99108.44;5039423;28;20034;-64
2023/03/08 01:13:47;;;;;;;24.55;12.57;;;;;;;9.00;67.00;99096.09;5040104;28;20351;-64
2023/03/08 01:16:28;;;;;;;21.92;11.88;;;;;;;8.94;67.32;99097.59;5038590;28;20040;-65
2023/03/08 01:18:54;;;;;;;22.85;11.20;;;;;;;8.86;67.49;99102.06;5036634;28;20039;-64
2023/03/08 01:21:21;;;;;;;21.95;11.90;;;;;;;8.77;68.34;99098.59;5039568;28;20075;-64
2023/03/08 01:23:46;;;;;;;24.80;13.48;;;;;;;8.82;68.52;99106.84;5037626;28;20128;-64
2023/03/08 01:26:15;;;;;;;25.42;12.95;;;;;;;8.66;68.75;99104.22;5037049;28;20025;-64
2023/03/08 01:28:41;;;;;;;20.52;12.60;;;;;;;8.89;68.18;99107.81;5035570;28;20096;-65
2023/03/08 01:31:19;;;;;;;24.48;13.20;;;;;;;8.96;67.87;99108.81;5036802;28;20323;-65
2023/03/08 01:33:45;;;;;;;26.13;13.75;;;;;;;9.17;66.34;99108.28;5035919;28;20053;-64
2023/03/08 01:36:14;;;;;;;23.23;13.05;;;;;;;9.16;65.97;99113.72;5035574;28;20048;-64
2023/03/08 01:38:39;;;;;;;24.30;13.25;;;;;;;9.11;64.98;99106.31;5031933;28;20055;-64
2023/03/08 01:41:07;;;;;;;23.73;12.63;;;;;;;9.21;64.12;99108.75;5035718;28;20405;-64
2023/03/08 01:43:36;;;;;;;22.08;12.98;;;;;;;9.15;65.13;99109.44;5035860;28;20045;-64
2023/03/08 01:46:25;;;;;;;22.23;12.25;;;;;;;9.20;65.20;99110.59;5034869;28;20124;-65
2023/03/08 01:49:09;;;;;;;23.52;12.00;;;;;;;9.13;65.29;99108.78;5034370;28;20377;-65
2023/03/08 01:52:09;;;;;;;22.90;11.70;;;;;;;8.73;66.56;99105.19;5036064;28;20052;-64
2023/03/08 01:54:51;;;;;;;24.63;13.10;;;;;;;8.50;67.69;99110.31;5031823;28;20224;-64
2023/03/08 01:57:22;;;;;;;23.77;12.18;;;;;;;8.77;66.79;99114.44;5035008;28;20033;-64
2023/03/08 01:59:50;;;;;;;24.98;12.68;;;;;;;8.90;66.80;99106.84;5036568;28;20095;-65
2023/03/08 02:02:23;;;;;;;22.73;11.85;;;;;;;8.91;66.57;99103.22;5036153;28;20045;-65
2023/03/08 02:04:49;;;;;;;20.15;11.60;;;;;;;8.82;66.65;99106.84;5035290;28;20275;-64
2023/03/08 02:07:14;;;;;;;19.45;10.18;;;;;;;8.87;66.91;99109.00;5033755;28;20033;-64
2023/03/08 02:09:40;;;;;;;16.92;9.70;;;;;;;8.81;67.04;99102.56;5035698;28;20319;-64
2023/03/08 02:12:10;;;;;;;17.05;9.27;;;;;;;8.83;67.37;99105.84;5035549;28;20075;-64
2023/03/08 02:14:35;;;;;;;16.80;9.73;;;;;;;8.99;66.79;99104.19;5033733;28;20091;-65
2023/03/08 02:17:01;;;;;;;16.30;8.50;;;;;;;9.10;65.99;99103.84;5030457;28;20254;-65
2023/03/08 02:19:31;;;;;;;15.23;9.77;;;;;;;9.11;65.82;99101.03;5035686;28;21534;-64
2023/03/08 02:21:57;;;;;;;15.88;9.57;;;;;;;9.19;65.89;99098.38;5035544;28;20121;-64
2023/03/08 02:24:24;;;;;;;15.95;9.20;;;;;;;9.15;65.49;99093.59;5034949;28;20034;-64
2023/03/08 02:27:03;;;;;;;21.50;10.25;;;;;;;9.06;65.69;99106.00;5036114;28;20029;-65
2023/03/08 02:29:28;;;;;;;17.95;10.73;;;;;;;8.74;67.11;99106.03;5034749;28;20044;-66
2023/03/08 02:31:54;;;;;;;22.52;11.07;;;;;;;8.62;66.77;99106.38;5034823;28;20719;-64
2023/03/08 02:34:19;;;;;;;21.67;11.60;;;;;;;8.51;68.05;99116.41;5035605;28;20033;-64
2023/03/08 02:36:44;;;;;;;21.98;11.45;;;;;;;8.60;67.67;99116.25;5033678;28;20041;-64
2023/03/08 02:39:10;;;;;;;24.58;12.10;;;;;;;8.81;67.27;99120.22;5033673;28;20339;-64
2023/03/08 02:41:35;;;;;;;24.58;13.23;;;;;;;8.66;66.57;99127.97;5035891;28;20038;-64
2023/03/08 02:44:00;;;;;;;26.83;13.30;;;;;;;8.84;65.11;99130.44;5034135;28;20041;-64
2023/03/08 02:46:26;;;;;;;25.83;12.75;;;;;;;8.80;65.93;99124.66;5034232;28;20095;-65
2023/03/08 02:48:51;;;;;;;22.70;13.48;;;;;;;8.87;65.49;99127.47;5034065;28;20380;-65
2023/03/08 02:51:17;;;;;;;22.42;12.55;;;;;;;8.71;66.14;99130.94;5033292;28;20025;-64
2023/03/08 02:53:42;;;;;;;20.30;11.23;;;;;;;8.46;65.87;99129.28;5033271;28;20095;-64
2023/03/08 02:56:08;;;;;;;20.13;10.98;;;;;;;8.41;63.73;99124.50;5030869;28;20327;-64
2023/03/08 02:58:33;;;;;;;20.02;12.27;;;;;;;8.56;64.21;99138.69;5034891;28;20048;-64
2023/03/08 03:00:59;;;;;;;19.17;11.25;;;;;;;8.64;63.39;99143.97;5035056;28;20025;-64
2023/03/08 03:03:24;;;;;;;18.83;10.30;;;;;;;8.64;63.40;99151.06;5032608;28;20255;-64
2023/03/08 03:05:49;;;;;;;16.25;10.18;;;;;;;8.52;62.97;99152.38;5033289;28;20041;-63
2023/03/08 03:08:15;;;;;;;18.42;10.52;;;;;;;8.44;62.73;99155.81;5033072;28;20045;-64
2023/03/08 03:10:40;;;;;;;16.63;9.18;;;;;;;8.18;64.42;99157.69;5036006;28;20072;-64
2023/03/08 03:13:06;;;;;;;21.10;10.38;;;;;;;8.21;64.34;99150.28;5034579;28;20311;-64
2023/03/08 03:15:32;;;;;;;20.33;10.38;;;;;;;8.18;64.26;99147.13;5034677;28;20083;-64
2023/03/08 03:17:58;;;;;;;20.02;11.43;;;;;;;8.27;64.40;99139.06;5034807;28;20056;-64
2023/03/08 03:20:24;;;;;;;25.13;13.65;;;;;;;8.33;64.53;99145.59;5033632;28;20350;-64
2023/03/08 03:22:50;;;;;;;29.90;12.43;;;;;;;8.25;64.26;99140.22;5034505;28;20132;-65
2023/03/08 03:25:15;;;;;;;30.50;13.82;;;;;;;8.26;63.73;99141.88;5033034;28;20037;-64
2023/03/08 03:27:41;;;;;;;23.38;12.27;;;;;;;8.26;64.88;99140.06;5033808;28;20037;-64
2023/03/08 03:30:08;;;;;;;24.88;13.57;;;;;;;8.24;65.11;99144.69;5034258;28;20335;-64
2023/03/08 03:32:34;;;;;;;22.75;13.10;;;;;;;8.36;65.19;99144.44;5032843;28;20041;-64
2023/03/08 03:34:59;;;;;;;21.35;12.27;;;;;;;8.36;64.63;99147.06;5032753;28;20029;-64
2023/03/08 03:37:25;;;;;;;20.25;11.82;;;;;;;8.27;64.64;99152.28;5034294;28;20033;-64
2023/03/08 03:39:50;;;;;;;16.80;10.20;;;;;;;8.28;63.37;99145.19;5034045;28;20044;-65
2023/03/08 03:42:16;;;;;;;21.95;11.25;;;;;;;8.35;63.53;99151.53;5034098;28;20049;-65
2023/03/08 03:44:42;;;;;;;21.50;11.40;;;;;;;8.42;63.18;99151.69;5034716;28;20333;-64
2023/03/08 03:47:07;;;;;;;17.13;10.30;;;;;;;8.12;63.78;99155.69;5033759;28;20216;-64
2023/03/08 03:49:33;;;;;;;18.95;10.30;;;;;;;8.13;62.92;99159.97;5032535;28;20296;-64
2023/03/08 03:51:58;;;;;;;19.70;11.48;;;;;;;8.22;63.96;99159.84;5033356;28;20049;-64
2023/03/08 03:54:24;;;;;;;23.02;12.23;;;;;;;8.21;64.64;99174.00;5034053;28;20049;-65
2023/03/08 03:56:50;;;;;;;28.60;13.65;;;;;;;8.22;65.19;99172.19;5033936;28;20112;-64
2023/03/08 03:59:15;;;;;;;23.67;12.68;;;;;;;8.17;65.26;99180.59;5032971;28;20029;-64
2023/03/08 04:01:41;;;;;;;25.42;12.70;;;;;;;8.02;66.32;99183.03;5033914;28;20530;-64
2023/03/08 04:04:07;;;;;;;22.20;12.25;;;;;;;8.17;65.90;99187.69;5033427;28;20033;-63
2023/03/08 04:06:34;;;;;;;23.20;12.57;;;;;;;8.24;65.28;99189.53;5029390;28;20025;-63
2023/03/08 04:09:04;;;;;;;20.17;12.10;;;;;;;7.97;64.59;99187.94;5034099;28;20041;-64
2023/03/08 04:11:37;;;;;;;21.08;11.98;;;;;;;8.08;65.09;99183.38;5031663;28;20347;-65
2023/03/08 04:14:04;;;;;;;23.13;12.43;;;;;;;8.10;65.95;99195.41;5034529;28;20041;-65
2023/03/08 04:16:32;;;;;;;21.10;12.00;;;;;;;8.17;65.81;99191.13;5032188;28;20037;-64
2023/03/08 04:19:00;;;;;;;21.30;12.48;;;;;;;8.09;65.24;99183.22;5034365;28;20067;-64
2023/03/08 04:21:27;;;;;;;22.27;12.60;;;;;;;7.95;66.11;99184.63;5034389;28;20243;-65
2023/03/08 04:23:53;;;;;;;27.08;13.88;;;;;;;8.04;65.07;99195.22;5034118;28;20041;-65
2023/03/08 04:26:19;;;;;;;24.85;12.85;;;;;;;7.98;64.52;99201.94;5033379;28;20044;-64
2023/03/08 04:28:45;;;;;;;27.33;14.95;;;;;;;8.03;64.79;99197.03;5033634;28;20343;-64
2023/03/08 04:31:17;;;;;;;34.25;15.70;;;;;;;8.11;64.38;99204.13;5033088;28;20071;-64
2023/03/08 04:33:43;;;;;;;26.88;13.43;;;;;;;8.14;64.46;99204.66;5034404;28;20042;-64
2023/03/08 04:36:09;;;;;;;22.50;12.98;;;;;;;8.10;64.72;99205.94;5033345;28;20075;-64
2023/03/08 04:38:35;;;;;;;27.52;13.43;;;;;;;7.92;64.82;99208.69;5033360;28;20041;-63
2023/03/08 04:41:01;;;;;;;24.90;12.80;;;;;;;7.88;65.44;99209.16;5032522;28;20025;-65
2023/03/08 04:43:28;;;;;;;25.38;13.65;;;;;;;7.74;66.01;99207.13;5032341;28;20124;-65
2023/03/08 04:45:53;;;;;;;26.45;13.73;;;;;;;7.63;66.15;99206.41;5033367;28;20033;-64
2023/03/08 04:48:19;;;;;;;22.58;14.52;;;;;;;7.66;66.57;99205.25;5033359;28;20038;-63
2023/03/08 04:50:51;;;;;;;29.30;14.45;;;;;;;7.62;66.38;99206.56;5033507;28;20346;-64
2023/03/08 04:53:17;;;;;;;24.80;14.18;;;;;;;7.64;66.24;99209.84;5033028;28;20073;-65
2023/03/08 04:55:42;;;;;;;24.00;14.15;;;;;;;7.72;66.02;99212.53;5033647;28;20053;-64
2023/03/08 04:58:07;;;;;;;22.42;14.48;;;;;;;7.88;65.38;99211.78;5033036;28;20033;-64
2023/03/08 05:00:33;;;;;;;25.13;14.77;;;;;;;7.87;65.18;99212.78;5035404;28;20036;-64
2023/03/08 05:02:58;;;;;;;29.40;14.60;;;;;;;7.87;64.43;99220.69;5039953;28;20056;-64
2023/03/08 05:05:24;;;;;;;24.50;15.27;;;;;;;7.84;63.84;99215.72;5040802;28;20347;-64
2023/03/08 05:07:49;;;;;;;27.13;15.32;;;;;;;7.85;64.74;99209.47;5039715;28;20112;-64
2023/03/08 05:10:15;;;;;;;23.38;14.98;;;;;;;7.76;65.43;99221.78;5040623;28;20044;-63
2023/03/08 05:12:40;;;;;;;28.20;13.77;;;;;;;7.68;66.12;99213.84;5040500;28;20037;-65
2023/03/08 05:15:06;;;;;;;19.40;11.38;;;;;;;7.90;65.53;99215.94;5040839;28;20053;-65
2023/03/08 05:17:31;;;;;;;21.02;11.65;;;;;;;7.97;65.29;99213.47;5040985;28;20513;-64
2023/03/08 05:19:57;;;;;;;18.70;9.98;;;;;;;8.07;65.38;99211.53;5040960;28;20151;-64
2023/03/08 05:22:22;;;;;;;19.60;10.07;;;;;;;8.22;64.44;99223.13;5040365;28;20051;-64
2023/03/08 05:24:48;;;;;;;17.40;9.95;;;;;;;8.20;64.43;99222.47;5040669;28;20037;-64
2023/03/08 05:27:13;;;;;;;20.15;10.68;;;;;;;8.04;64.88;99222.41;5040871;28;20033;-64
2023/03/08 05:29:38;;;;;;;21.20;10.25;;;;;;;7.86;66.09;99232.22;5040407;28;20267;-65
2023/03/08 05:32:04;;;;;;;17.13;10.40;;;;;;;7.90;66.10;99228.28;5040233;28;20041;-64
2023/03/08 05:34:30;;;;;;;21.08;11.23;;;;;;;8.07;66.02;99222.09;5040754;28;20221;-64
2023/03/08 05:36:56;;;;;;;20.10;11.30;;;;;;;8.19;65.84;99217.34;5040266;28;20048;-64
2023/03/08 05:39:21;;;;;;;21.88;12.60;;;;;;;8.29;64.90;99220.69;5040350;28;20041;-65
2023/03/08 05:41:47;;;;;;;24.63;15.77;;;;;;;8.18;65.47;99226.25;5040448;28;20281;-65
2023/03/08 05:44:12;;;;;;;37.45;20.50;;;;;;;8.34;65.49;99220.28;5040624;28;20040;-64
2023/03/08 05:46:38;;;;;;;46.95;27.40;;;;;;;8.43;65.40;99230.69;5040472;28;20326;-64
2023/03/08 05:49:05;;;;;;;37.22;20.77;;;;;;;8.31;66.15;99231.91;5040593;28;20045;-64
2023/03/08 05:51:30;;;;;;;29.35;16.02;;;;;;;8.12;67.16;99238.25;5040102;28;20215;-65
2023/03/08 05:53:55;;;;;;;22.33;14.38;;;;;;;8.31;67.05;99238.00;5040283;28;20025;-65
2023/03/08 05:56:23;;;;;;;22.95;13.00;;;;;;;8.52;66.58;99242.09;5040594;28;20037;-64
2023/03/08 05:58:49;;;;;;;22.90;12.82;;;;;;;8.59;66.23;99249.19;5040138;28;20037;-64
2023/03/08 06:01:22;;;;;;;21.65;12.07;;;;;;;8.60;66.50;99263.22;5039920;28;20045;-64
2023/03/08 06:03:50;;;;;;;20.95;12.50;;;;;;;8.69;66.54;99262.25;5039646;28;20042;-65
2023/03/08 06:06:16;;;;;;;19.65;11.73;;;;;;;8.86;67.16;99253.38;5039746;28;20061;-65
2023/03/08 06:08:42;;;;;;;21.48;12.60;;;;;;;9.04;66.55;99265.59;5039822;28;20262;-64
2023/03/08 06:11:08;;;;;;;28.48;13.32;;;;;;;9.29;65.65;99267.25;5040035;28;20029;-64
2023/03/08 06:13:34;;;;;;;19.48;11.85;;;;;;;9.47;65.23;99273.22;5039283;28;20056;-64
2023/03/08 06:16:00;;;;;;;16.42;9.57;;;;;;;9.54;64.67;99273.38;5039993;28;20041;-64
2023/03/08 06:18:26;;;;;;;20.00;10.43;;;;;;;9.51;65.16;99269.25;5039856;28;20312;-65
2023/03/08 06:20:55;;;;;;;16.77;8.57;;;;;;;9.63;65.04;99279.50;5040139;28;20075;-65
2023/03/08 06:23:21;;;;;;;19.48;10.27;;;;;;;9.60;65.42;99276.19;5039779;28;20049;-64
2023/03/08 06:25:46;;;;;;;19.20;10.70;;;;;;;9.63;65.62;99276.84;5036997;28;20242;-64
2023/03/08 06:28:11;;;;;;;16.45;8.75;;;;;;;9.99;64.14;99267.50;5035286;28;20044;-64
2023/03/08 06:30:37;;;;;;;15.68;9.18;;;;;;;10.18;63.36;99269.75;5036081;28;20358;-65
2023/03/08 06:33:02;;;;;;;22.30;10.25;;;;;;;10.31;62.93;99268.41;5035841;28;20337;-65
2023/03/08 06:35:28;;;;;;;17.63;9.55;;;;;;;10.46;62.90;99282.63;5035640;28;20037;-64
2023/03/08 06:37:53;;;;;;;20.95;10.40;;;;;;;10.60;61.96;99291.66;5035639;28;20051;-64
2023/03/08 06:40:19;;;;;;;22.30;12.02;;;;;;;10.71;63.01;99297.38;5035675;28;20311;-64
2023/03/08 06:42:45;;;;;;;26.95;14.68;;;;;;;10.92;61.63;99302.06;5036380;28;20272;-64
2023/03/08 06:45:10;;;;;;;25.00;13.63;;;;;;;11.02;62.72;99299.19;5035216;28;20028;-64
2023/03/08 06:47:35;;;;;;;26.30;14.00;;;;;;;11.16;63.13;99303.72;5034404;28;20060;-64
2023/03/08 06:50:01;;;;;;;28.17;13.35;;;;;;;11.36;61.73;99306.72;5034644;28;20043;-65
2023/03/08 06:52:26;;;;;;;23.65;13.52;;;;;;;11.41;62.14;99309.66;5034958;28;20061;-65
2023/03/08 06:54:52;;;;;;;18.52;9.48;;;;;;;11.46;61.68;99307.34;5035728;28;20035;-64
2023/03/08 06:57:17;;;;;;;15.40;8.77;;;;;;;11.45;61.40;99324.25;5034967;28;20034;-64
2023/03/08 06:59:42;;;;;;;12.32;8.35;;;;;;;11.48;61.81;99319.41;5035138;28;20033;-63
2023/03/08 07:02:09;;;;;;;10.90;7.60;;;;;;;11.48;61.37;99314.09;5035887;28;20048;-64
2023/03/08 07:04:34;;;;;;;11.68;7.90;;;;;;;11.59;61.88;99314.69;5033841;28;20037;-64
2023/03/08 07:07:00;;;;;;;14.52;8.27;;;;;;;11.84;62.51;99324.09;5034022;28;20095;-64
2023/03/08 07:09:25;;;;;;;12.98;9.20;;;;;;;12.07;61.72;99324.03;5035218;28;20079;-65
2023/03/08 07:11:51;;;;;;;12.35;8.73;;;;;;;12.29;61.84;99335.59;5034819;28;20343;-64
2023/03/08 07:14:16;;;;;;;10.85;7.30;;;;;;;12.48;60.44;99332.38;5036331;28;20208;-64
2023/03/08 07:16:41;;;;;;;10.80;7.10;;;;;;;12.62;60.09;99328.09;5034165;28;20041;-64
2023/03/08 07:19:07;;;;;;;11.90;7.30;;;;;;;12.61;60.19;99335.22;5034658;28;20029;-64
2023/03/08 07:21:32;;;;;;;11.90;8.00;;;;;;;12.85;59.63;99333.28;5035238;28;20041;-64
2023/03/08 07:23:58;;;;;;;12.48;8.25;;;;;;;12.85;58.90;99327.94;5034016;28;20398;-64
2023/03/08 07:26:23;;;;;;;15.75;8.05;;;;;;;12.92;59.74;99326.19;5034222;28;20029;-63
2023/03/08 07:28:50;;;;;;;13.20;8.80;;;;;;;12.95;58.82;99328.47;5033069;28;20044;-64
2023/03/08 07:31:16;;;;;;;17.13;9.95;;;;;;;12.95;59.12;99324.00;5034214;28;20227;-63
2023/03/08 07:33:41;;;;;;;15.45;10.15;;;;;;;13.00;58.56;99318.09;5035292;28;20106;-65
2023/03/08 07:36:07;;;;;;;14.93;9.50;;;;;;;13.08;58.53;99328.63;5035321;28;20033;-64
2023/03/08 07:38:32;;;;;;;15.68;9.48;;;;;;;13.26;57.59;99328.22;5034166;28;20053;-64
2023/03/08 07:40:57;;;;;;;13.93;9.15;;;;;;;13.31;56.08;99328.47;5034181;28;20040;-63
2023/03/08 07:43:23;;;;;;;14.65;9.15;;;;;;;13.10;57.50;99324.78;5034802;28;20045;-63
2023/03/08 07:45:49;;;;;;;12.23;8.35;;;;;;;13.34;55.38;99326.25;5035318;28;20049;-64
2023/03/08 07:48:14;;;;;;;15.82;9.27;;;;;;;13.27;56.19;99324.56;5035195;28;20343;-64
2023/03/08 07:50:40;;;;;;;15.05;10.35;;;;;;;13.51;56.00;99320.69;5034553;28;20041;-64
2023/03/08 07:53:06;;;;;;;14.57;9.85;;;;;;;13.58;54.81;99319.75;5036257;28;20045;-64
2023/03/08 07:55:33;;;;;;;14.00;8.23;;;;;;;13.43;54.90;99324.31;5034729;28;20064;-63
2023/03/08 07:57:58;;;;;;;13.48;8.70;;;;;;;13.32;55.51;99330.13;5032796;28;20036;-64
2023/03/08 08:00:24;;;;;;;13.77;8.13;;;;;;;13.66;55.28;99326.78;5034507;28;20033;-64
2023/03/08 08:02:52;;;;;;;13.63;9.43;;;;;;;13.80;54.75;99328.53;5032946;28;20071;-65
2023/03/08 08:05:20;;;;;;;12.68;7.70;;;;;;;13.87;55.18;99329.41;5034149;28;20354;-64
2023/03/08 08:07:46;;;;;;;14.15;9.30;;;;;;;14.04;54.41;99319.28;5033642;28;20053;-64
2023/03/08 08:10:12;;;;;;;12.15;7.90;;;;;;;14.02;53.54;99316.00;5033893;28;20041;-64
2023/03/08 08:12:37;;;;;;;16.45;8.73;;;;;;;14.17;54.17;99305.25;5031268;28;20114;-64
2023/03/08 08:15:03;;;;;;;11.30;8.10;;;;;;;14.39;52.29;99315.63;5035363;28;20033;-64
2023/03/08 08:17:28;;;;;;;11.85;8.43;;;;;;;14.44;52.04;99317.72;5034286;28;20227;-64
2023/03/08 08:19:54;;;;;;;13.10;7.68;;;;;;;14.72;51.82;99324.84;5035221;28;20030;-64
2023/03/08 08:22:19;;;;;;;14.07;7.75;;;;;;;14.93;50.25;99319.38;5034485;28;20037;-64
2023/03/08 08:24:44;;;;;;;14.30;7.53;;;;;;;15.00;49.61;99310.38;5032841;28;20060;-64
2023/03/08 08:27:10;;;;;;;11.07;7.15;;;;;;;15.05;49.29;99311.63;5033283;28;20045;-64
2023/03/08 08:29:36;;;;;;;12.38;7.18;;;;;;;15.13;49.68;99320.25;5033318;28;20094;-64
2023/03/08 08:32:03;;;;;;;12.63;7.38;;;;;;;15.30;49.54;99318.03;5032145;28;20044;-64
2023/03/08 08:34:28;;;;;;;11.98;6.97;;;;;;;15.38;50.05;99312.50;5033553;28;20044;-65
2023/03/08 08:36:54;;;;;;;10.27;6.68;;;;;;;15.48;49.17;99318.25;5037514;28;20453;-64
2023/03/08 08:39:19;;;;;;;10.48;6.38;;;;;;;15.61;48.47;99313.00;5038521;28;20029;-64
2023/03/08 08:41:44;;;;;;;15.37;8.87;;;;;;;15.71;48.79;99317.09;5036696;28;21215;-64
2023/03/08 08:44:10;;;;;;;10.15;7.50;;;;;;;15.62;49.09;99327.16;5037305;28;20492;-64
2023/03/08 08:46:36;;;;;;;11.20;7.55;;;;;;;15.51;50.55;99317.03;5037262;28;20037;-64
2023/03/08 08:49:04;;;;;;;10.50;8.15;;;;;;;15.47;50.93;99321.13;5037156;28;20279;-64
2023/03/08 08:51:30;;;;;;;12.23;6.75;;;;;;;15.34;51.40;99327.28;5036765;28;20060;-64
2023/03/08 08:53:55;;;;;;;15.27;7.03;;;;;;;15.42;50.54;99324.41;5036325;28;20367;-64
2023/03/08 08:56:23;;;;;;;10.15;6.57;;;;;;;15.52;49.90;99321.34;5036534;28;20037;-64
2023/03/08 08:58:49;;;;;;;10.57;6.95;;;;;;;15.49;48.67;99319.91;5036429;28;20072;-64
2023/03/08 09:01:21;;;;;;;11.68;6.80;;;;;;;15.50;50.99;99321.56;5036419;28;20044;-64
2023/03/08 09:03:48;;;;;;;11.13;6.90;;;;;;;15.59;48.71;99309.69;5037583;28;20044;-64
2023/03/08 09:06:15;;;;;;;8.40;6.13;;;;;;;15.58;49.44;99312.56;5036856;28;20351;-65
2023/03/08 09:08:40;;;;;;;11.18;6.00;;;;;;;15.69;49.29;99298.63;5037300;28;20047;-64
2023/03/08 09:11:09;;;;;;;9.45;6.57;;;;;;;15.68;49.69;99304.16;5036686;28;20108;-64
2023/03/08 09:13:39;;;;;;;8.70;5.85;;;;;;;15.85;47.82;99289.38;5036572;28;20056;-64
2023/03/08 09:16:05;;;;;;;11.18;6.32;;;;;;;15.75;49.36;99297.81;5036648;28;20063;-64
2023/03/08 09:18:30;;;;;;;9.82;6.70;;;;;;;15.96;50.07;99286.06;5038175;28;20327;-64
2023/03/08 09:20:55;;;;;;;12.73;6.05;;;;;;;15.99;49.10;99280.31;5037265;28;20037;-64
2023/03/08 09:23:21;;;;;;;8.98;6.25;;;;;;;16.17;49.06;99280.47;5036054;28;20095;-64
2023/03/08 09:25:55;;;;;;;8.80;6.80;;;;;;;16.32;48.26;99274.91;5035102;28;20090;-64
2023/03/08 09:28:20;;;;;;;;;;;;;;;16.37;45.17;99267.06;5035884;28;20151;-64
2023/03/08 09:30:45;;;;;;;7.95;5.00;;;;;;;16.38;45.30;99265.22;5035769;28;19925;-64
2023/03/08 09:33:11;;;;;;;7.57;5.50;;;;;;;16.44;45.58;99267.03;5036019;28;20044;-64
2023/03/08 09:35:36;;;;;;;6.72;5.00;;;;;;;16.51;46.20;99265.97;5037107;28;20044;-64
2023/03/08 09:38:01;;;;;;;9.95;5.78;;;;;;;16.59;45.68;99265.75;5037516;28;20041;-65
2023/03/08 09:40:32;;;;;;;5.75;4.13;;;;;;;16.66;45.64;99254.25;5035497;28;20385;-64
2023/03/08 09:43:04;;;;;;;7.72;4.25;;;;;;;16.65;45.60;99258.78;5036563;28;20033;-64
2023/03/08 09:45:29;;;;;;;4.57;4.03;;;;;;;16.54;45.55;99270.91;5035710;28;20042;-64
2023/03/08 09:48:19;;;;;;;24.27;12.10;;;;;;;16.62;46.26;99275.19;5033800;28;20042;-64
2023/03/08 09:50:50;;;;;;;9.57;5.15;;;;;;;16.73;44.21;99273.75;5033368;28;20048;-64
2023/03/08 09:53:15;;;;;;;12.68;6.07;;;;;;;16.68;45.73;99268.25;5037103;28;20029;-64
2023/03/08 09:55:49;;;;;;;6.57;4.00;;;;;;;16.72;44.39;99272.13;5035246;28;20303;-64
2023/03/08 09:58:41;;;;;;;5.25;3.78;;;;;;;16.75;44.61;99269.84;5032535;28;20037;-64
2023/03/08 10:01:35;;;;;;;5.80;3.95;;;;;;;16.76;43.21;99271.47;5035722;28;20037;-64
2023/03/08 10:04:10;;;;;;;3.70;3.30;;;;;;;16.77;44.84;99266.97;5034610;28;20041;-64
2023/03/08 10:07:11;;;;;;;6.55;3.55;;;;;;;16.89;44.89;99268.75;5033125;28;20133;-64
2023/03/08 10:09:43;;;;;;;6.90;4.60;;;;;;;17.05;44.24;99255.91;5032897;28;20351;-65
2023/03/08 10:12:49;;;;;;;9.98;4.30;;;;;;;17.10;43.60;99258.75;5035362;28;20271;-65
2023/03/08 10:15:18;;;;;;;6.10;3.50;;;;;;;17.13;43.42;99252.97;5034664;28;20060;-64
2023/03/08 10:18:14;;;;;;;4.50;3.00;;;;;;;17.15;42.88;99254.38;5035330;28;20083;-64
2023/03/08 10:20:41;;;;;;;5.72;3.33;;;;;;;17.25;42.33;99248.53;5034026;28;20230;-64
2023/03/08 10:23:18;;;;;;;6.25;3.80;;;;;;;17.22;40.89;99251.66;5036306;28;20033;-64
2023/03/08 10:25:45;;;;;;;6.15;3.97;;;;;;;17.19;41.81;99252.91;5036751;28;20337;-64
2023/03/08 10:28:17;;;;;;;4.85;3.40;;;;;;;17.11;42.89;99253.16;5033504;28;20232;-64
2023/03/08 10:30:56;;;;;;;8.02;3.90;;;;;;;17.11;41.85;99245.16;5032123;28;20372;-64
2023/03/08 10:33:25;;;;;;;7.22;3.80;;;;;;;17.21;41.94;99237.47;5034244;28;20040;-64
2023/03/08 10:35:53;;;;;;;5.47;3.80;;;;;;;17.24;43.60;99238.88;5034565;28;20033;-64
2023/03/08 10:38:19;;;;;;;6.05;3.75;;;;;;;17.30;40.54;99231.84;5035437;28;20050;-64
2023/03/08 10:40:45;;;;;;;11.32;4.55;;;;;;;17.31;40.23;99223.59;5036090;28;20033;-65
2023/03/08 10:43:47;;;;;;;8.68;4.45;;;;;;;17.34;41.49;99220.47;5035286;28;20042;-65
2023/03/08 10:46:16;;;;;;;4.70;3.30;;;;;;;17.33;39.20;99216.16;5029396;28;20116;-64
2023/03/08 10:48:42;;;;;;;4.20;3.22;;;;;;;17.42;39.69;99200.66;5031683;28;20079;-64
2023/03/08 10:51:25;;;;;;;3.97;2.63;;;;;;;17.47;37.63;99203.50;5034902;28;20041;-64
2023/03/08 10:53:57;;;;;;;2.85;1.80;;;;;;;17.51;37.21;99199.34;5036573;28;20285;-64
2023/03/08 10:56:27;;;;;;;29.02;11.60;;;;;;;17.47;35.30;99193.59;5030474;28;20052;-64
2023/03/08 10:58:56;;;;;;;10.63;4.70;;;;;;;17.59;35.94;99191.03;5034503;28;20033;-64
2023/03/08 11:01:31;;;;;;;11.38;6.15;;;;;;;17.56;36.14;99181.56;5032983;28;20053;-64
2023/03/08 11:04:23;;;;;;;6.25;2.60;;;;;;;17.67;39.03;99193.44;5033298;28;20544;-64
2023/03/08 11:06:49;;;;;;;3.72;2.42;;;;;;;17.72;37.14;99187.47;5035736;28;20077;-64
2023/03/08 11:09:21;;;;;;;4.28;2.72;;;;;;;17.52;36.49;99183.06;5033939;28;20045;-64
2023/03/08 11:11:46;;;;;;;3.25;2.38;;;;;;;17.54;36.74;99172.94;5032672;28;20104;-64
2023/03/08 11:14:13;;;;;;;2.83;2.17;;;;;;;17.61;36.33;99169.38;5034145;28;20220;-65
2023/03/08 11:16:57;;;;;;;3.03;1.92;;;;;;;17.60;36.80;99175.78;5034279;28;20045;-64
2023/03/08 11:19:48;;;;;;;2.38;2.00;;;;;;;17.59;34.09;99171.47;5034317;28;20033;-64
2023/03/08 11:22:31;;;;;;;4.38;2.25;;;;;;;17.55;35.72;99163.06;5034424;28;20053;-64
2023/03/08 11:25:20;;;;;;;5.28;2.38;;;;;;;17.39;35.22;99159.09;5032631;28;20236;-64
2023/03/08 11:28:07;;;;;;;3.25;2.35;;;;;;;17.39;36.78;99148.38;5032298;28;20041;-64
2023/03/08 11:30:55;;;;;;;4.90;1.90;;;;;;;17.39;36.52;99150.25;5033762;28;20063;-64